createdAt,value
2023-01-14T00:01:54.111Z,85.78
2023-01-14T00:06:55.936Z,88.27
2023-01-14T00:11:57.723Z,87.13
2023-01-14T00:17:00.726Z,87.05
2023-01-14T00:22:02.142Z,85.04
2023-01-14T00:27:03.633Z,85.10
2023-01-14T00:32:05.932Z,83.76
2023-01-14T00:37:08.273Z,82.90
2023-01-14T00:42:09.738Z,82.22
2023-01-14T00:47:11.278Z,81.51
2023-01-14T00:52:12.797Z,80.80
2023-01-14T00:57:17.101Z,80.09
2023-01-14T01:02:18.558Z,79.52
2023-01-14T01:07:20.009Z,79.28
2023-01-14T01:12:21.986Z,79.63
2023-01-14T01:17:23.936Z,79.35
2023-01-14T01:22:25.464Z,79.71
2023-01-14T01:27:26.844Z,79.62
2023-01-14T01:32:28.227Z,79.72
2023-01-14T01:37:30.096Z,79.71
2023-01-14T01:42:34.993Z,80.20
2023-01-14T01:47:36.373Z,79.79
2023-01-14T01:52:37.847Z,80.13
2023-01-14T01:57:39.608Z,79.48
2023-01-14T02:02:41.115Z,79.79
2023-01-14T02:07:44.663Z,79.88
2023-01-14T02:13:15.917Z,79.02
2023-01-14T02:18:31.257Z,79.50
2023-01-14T02:24:06.013Z,79.73
2023-01-14T02:29:27.390Z,79.20
2023-01-14T02:34:37.720Z,79.52
2023-01-14T02:39:46.082Z,79.91
2023-01-14T02:44:55.383Z,79.12
2023-01-14T02:50:00.040Z,79.56
2023-01-14T02:55:03.868Z,79.71
2023-01-14T03:00:30.170Z,80.13
2023-01-14T03:05:49.579Z,80.35
2023-01-14T03:11:00.549Z,80.38
2023-01-14T03:16:07.980Z,80.72
2023-01-14T03:21:19.112Z,80.37
2023-01-14T03:26:23.483Z,80.61
2023-01-14T03:31:29.111Z,80.87
2023-01-14T03:36:34.828Z,81.25
2023-01-14T03:41:56.704Z,81.27
2023-01-14T03:46:58.652Z,81.79
2023-01-14T03:52:07.835Z,81.64
2023-01-14T03:57:15.856Z,81.86
2023-01-14T04:02:19.839Z,81.74
2023-01-14T04:07:22.723Z,81.69
2023-01-14T04:12:24.170Z,81.65
2023-01-14T04:17:25.556Z,81.80
2023-01-14T04:22:27.021Z,81.24
2023-01-14T04:27:28.335Z,81.61
2023-01-14T04:32:32.168Z,81.54
2023-01-14T04:37:33.565Z,82.29
2023-01-14T04:42:35.111Z,82.02
2023-01-14T04:47:36.814Z,82.04
2023-01-14T04:52:38.399Z,82.27
2023-01-14T04:57:39.759Z,82.21
2023-01-14T05:02:41.164Z,82.33
2023-01-14T05:07:42.621Z,83.38
2023-01-14T05:12:57.156Z,83.25
2023-01-14T05:17:59.038Z,83.71
2023-01-14T05:23:06.273Z,83.38
2023-01-14T05:28:11.973Z,83.85
2023-01-14T05:33:14.365Z,83.75
2023-01-14T05:38:15.937Z,83.99
2023-01-14T05:43:36.134Z,83.62
2023-01-14T05:48:37.525Z,82.99
2023-01-14T05:53:39.059Z,82.77
2023-01-14T05:58:40.421Z,83.23
2023-01-14T06:04:00.400Z,83.02
2023-01-14T06:09:07.205Z,83.19
2023-01-14T06:14:08.973Z,83.05
2023-01-14T06:19:14.406Z,83.37
2023-01-14T06:24:15.868Z,83.73
2023-01-14T06:29:17.245Z,83.55
2023-01-14T06:34:22.311Z,83.07
2023-01-14T06:39:23.773Z,82.67
2023-01-14T06:44:25.142Z,82.83
2023-01-14T06:49:26.599Z,83.22
2023-01-14T06:54:27.903Z,82.98
2023-01-14T06:59:29.408Z,82.59
2023-01-14T07:04:30.869Z,82.50
2023-01-14T07:09:32.722Z,82.35
2023-01-14T07:14:34.307Z,82.21
2023-01-14T07:19:35.801Z,82.21
2023-01-14T07:24:38.948Z,82.18
2023-01-14T07:29:40.464Z,82.44
2023-01-14T07:34:41.892Z,82.16
2023-01-14T07:39:43.331Z,81.12
2023-01-14T07:44:45.004Z,81.48
2023-01-14T07:49:46.629Z,80.85
2023-01-14T07:54:48.030Z,80.98
2023-01-14T07:59:49.487Z,80.97
2023-01-14T08:04:50.893Z,80.94
2023-01-14T08:09:52.367Z,81.47
2023-01-14T08:14:53.779Z,81.11
2023-01-14T08:19:55.333Z,79.98
2023-01-14T08:24:57.814Z,80.08
2023-01-14T08:29:59.239Z,79.95
2023-01-14T08:35:00.793Z,80.09
2023-01-14T08:40:02.334Z,80.19
2023-01-14T08:45:03.962Z,80.36
2023-01-14T08:50:05.750Z,80.70
2023-01-14T08:55:07.566Z,79.75
2023-01-14T09:00:10.479Z,80.48
2023-01-14T09:05:12.067Z,82.05
2023-01-14T09:10:32.000Z,83.00
2023-01-14T09:15:52.160Z,83.77
2023-01-14T09:20:53.563Z,84.80
2023-01-14T09:25:54.900Z,85.55
2023-01-14T09:30:56.315Z,85.58
2023-01-14T09:36:01.281Z,85.55
2023-01-14T09:41:10.678Z,86.27
2023-01-14T09:46:12.886Z,86.98
2023-01-14T09:51:33.191Z,86.80
2023-01-14T09:56:44.023Z,86.47
2023-01-14T10:02:10.246Z,86.22
2023-01-14T10:07:14.671Z,86.08
2023-01-14T10:12:39.077Z,86.83
2023-01-14T10:17:44.461Z,87.25
2023-01-14T10:23:06.286Z,87.49
2023-01-14T10:28:13.052Z,88.61
2023-01-14T10:33:16.612Z,88.63
2023-01-14T10:38:22.608Z,88.18
2023-01-14T10:43:30.968Z,87.80
2023-01-14T10:48:46.894Z,86.92
2023-01-14T10:53:48.451Z,87.25
2023-01-14T10:58:50.575Z,86.97
2023-01-14T11:03:52.522Z,86.84
2023-01-14T11:08:54.917Z,86.54
2023-01-14T11:13:56.730Z,86.45
2023-01-14T11:19:03.978Z,86.58
2023-01-14T11:24:19.463Z,85.91
2023-01-14T11:29:27.068Z,84.98
2023-01-14T11:34:39.123Z,84.29
2023-01-14T11:39:46.547Z,84.15
2023-01-14T11:45:12.818Z,83.88
2023-01-14T11:50:21.320Z,84.10
2023-01-14T11:55:23.017Z,83.24
2023-01-14T12:00:24.602Z,83.34
2023-01-14T12:05:26.633Z,83.08
2023-01-14T12:10:39.638Z,82.68
2023-01-14T12:16:22.066Z,82.68
2023-01-14T12:21:37.836Z,81.72
2023-01-14T12:26:44.845Z,81.94
2023-01-14T12:31:53.514Z,83.56
2023-01-14T12:37:10.391Z,85.42
2023-01-14T12:42:53.457Z,87.59
2023-01-14T12:47:55.640Z,88.49
2023-01-14T12:52:57.300Z,90.06
2023-01-14T12:58:00.615Z,89.77
2023-01-14T13:03:09.083Z,89.56
2023-01-14T13:08:26.453Z,91.37
2023-01-14T13:13:28.001Z,91.79
2023-01-14T13:18:35.643Z,91.83
2023-01-14T13:23:36.970Z,91.70
2023-01-14T13:29:06.830Z,93.45
2023-01-14T13:34:23.599Z,93.44
2023-01-14T13:39:25.512Z,94.17
2023-01-14T13:44:33.600Z,94.52
2023-01-14T13:49:42.237Z,94.49
2023-01-14T13:54:46.180Z,95.03
2023-01-14T13:59:54.814Z,94.88
2023-01-14T14:04:56.343Z,94.13
2023-01-14T14:10:02.522Z,95.04
2023-01-14T14:15:13.049Z,94.56
2023-01-14T14:20:18.981Z,95.37
2023-01-14T14:25:34.111Z,94.91
2023-01-14T14:30:49.714Z,94.63
2023-01-14T14:35:51.388Z,94.83
2023-01-14T14:40:52.975Z,94.04
2023-01-14T14:46:06.619Z,94.00
2023-01-14T14:51:16.030Z,94.30
2023-01-14T14:56:20.000Z,93.40
2023-01-14T15:01:23.513Z,94.16
2023-01-14T15:06:27.321Z,92.80
2023-01-14T15:11:33.631Z,92.58
2023-01-14T15:16:35.801Z,93.14
2023-01-14T15:21:39.127Z,93.00
2023-01-14T15:26:42.096Z,93.38
2023-01-14T15:31:43.459Z,93.23
2023-01-14T15:36:55.558Z,93.62
2023-01-14T15:42:00.516Z,93.97
2023-01-14T15:47:02.463Z,93.66
2023-01-14T15:52:07.093Z,93.92
2023-01-14T15:57:16.087Z,93.31
2023-01-14T16:02:25.792Z,93.05
2023-01-14T16:07:27.436Z,92.93
2023-01-14T16:12:28.793Z,93.82
2023-01-14T16:17:30.342Z,93.29
2023-01-14T16:22:33.618Z,93.67
2023-01-14T16:27:37.751Z,93.07
2023-01-14T16:32:39.222Z,93.36
2023-01-14T16:37:42.305Z,91.83
2023-01-14T16:42:44.053Z,91.90
2023-01-14T16:47:45.517Z,90.86
2023-01-14T16:52:47.523Z,90.97
2023-01-14T16:57:49.568Z,91.05
2023-01-14T17:02:51.569Z,90.58
2023-01-14T17:07:53.843Z,90.57
2023-01-14T17:12:55.186Z,90.77
2023-01-14T17:17:58.070Z,90.45
2023-01-14T17:23:01.817Z,90.41
2023-01-14T17:28:03.702Z,90.56
2023-01-14T17:33:05.133Z,90.72
2023-01-14T17:38:07.108Z,90.46
2023-01-14T17:43:08.595Z,90.92
2023-01-14T17:48:10.964Z,91.90
2023-01-14T17:53:12.610Z,92.66
2023-01-14T17:58:14.030Z,93.03
2023-01-14T18:03:16.456Z,92.71
2023-01-14T18:08:17.901Z,93.38
2023-01-14T18:13:19.361Z,94.20
2023-01-14T18:18:21.144Z,94.75
2023-01-14T18:23:22.687Z,95.64
2023-01-14T18:28:24.133Z,95.85
2023-01-14T18:33:25.733Z,96.24
2023-01-14T18:38:27.177Z,97.07
2023-01-14T18:43:28.719Z,97.66
2023-01-14T18:48:30.250Z,98.27
2023-01-14T18:53:31.732Z,98.42
2023-01-14T18:58:35.124Z,97.92
2023-01-14T19:03:36.939Z,98.73
2023-01-14T19:08:39.078Z,99.97
2023-01-14T19:13:40.463Z,100.00
2023-01-14T19:18:42.121Z,99.63
2023-01-14T19:23:43.598Z,98.78
2023-01-14T19:28:47.376Z,99.10
2023-01-14T19:33:49.074Z,98.48
2023-01-14T19:38:50.649Z,97.80
2023-01-14T19:43:52.333Z,97.77
2023-01-14T19:48:54.178Z,97.02
2023-01-14T19:53:56.895Z,97.76
2023-01-14T19:58:58.744Z,97.47
2023-01-14T20:04:07.136Z,97.76
2023-01-14T20:09:12.845Z,98.88
2023-01-14T20:14:14.446Z,99.78
2023-01-14T20:19:15.831Z,100.00
2023-01-14T20:24:17.269Z,98.88
2023-01-14T20:29:18.781Z,98.64
2023-01-14T20:34:20.147Z,99.06
2023-01-14T20:39:23.273Z,99.71
2023-01-14T20:44:43.547Z,100.00
2023-01-14T20:49:45.115Z,100.00
2023-01-14T20:54:47.379Z,100.00
2023-01-14T20:59:48.930Z,100.00
2023-01-14T21:04:50.535Z,100.00
2023-01-14T21:09:54.250Z,100.00
2023-01-14T21:15:14.335Z,100.00
2023-01-14T21:20:37.342Z,100.00
2023-01-14T21:25:42.227Z,100.00
2023-01-14T21:30:46.473Z,100.00
2023-01-14T21:35:48.080Z,100.00
2023-01-14T21:41:09.572Z,100.00
2023-01-14T21:46:11.086Z,100.00
2023-01-14T21:51:13.643Z,100.00
2023-01-14T21:56:18.329Z,100.00
2023-01-14T22:01:20.307Z,100.00
2023-01-14T22:06:22.736Z,100.00
2023-01-14T22:11:24.468Z,100.00
2023-01-14T22:16:27.394Z,100.00
2023-01-14T22:21:29.041Z,100.00
2023-01-14T22:26:30.399Z,100.00
2023-01-14T22:31:31.915Z,100.00
2023-01-14T22:36:33.310Z,100.00
2023-01-14T22:41:34.692Z,100.00
2023-01-14T22:46:36.146Z,100.00
2023-01-14T22:51:37.675Z,100.00
2023-01-14T22:56:39.483Z,100.00
2023-01-14T23:01:40.911Z,100.00
2023-01-14T23:06:42.559Z,100.00
2023-01-14T23:11:43.887Z,100.00
2023-01-14T23:17:03.725Z,100.00
2023-01-14T23:22:23.953Z,100.00
2023-01-14T23:27:25.635Z,100.00
2023-01-14T23:32:27.219Z,100.00
2023-01-14T23:37:29.763Z,100.00
2023-01-14T23:42:42.150Z,100.00
2023-01-14T23:47:44.663Z,100.00
2023-01-14T23:52:46.333Z,100.00
2023-01-14T23:57:48.165Z,100.00
